Platteville, Wisconsin
Current Conditions -  °F | °C
As of 6:15 AM on Friday 24 Oct 2014 (Local Time) from KPVB Reporting Station
Overcast Overcast  
Wind Chill: 47°   Ceiling: 300
Heat Index: 50°   Visibility: 0.25mi
Dew Point: 49°   Wind: 6mph
Humidity: 98%   Direction: 120°ESE
Pressure: 30.04"   Gusts: NA
Location:  42.74°N, 90.48°W
Report Text: KPVB 241115Z AUTO 12005KT 1/4SM OVC003 10/10 A3004 RMK AO1 T00980095
Loading
Personal Weather Stations






























Interactive Weather Map
Tropical Storm Tracking
New forecast layout! Learn more

10-Day Weather Forecast

Advertisements
Track Severe Weather on mobile